Time;durP1;ratioP1;P1;durP2;ratioP2;P2;SDS_P1;SDS_P2;PMS_P1;PMS_P2;Temp;Humidity;BMP_temperature;BMP_pressure;BME280_temperature;BME280_humidity;BME280_pressure;Samples;Min_cycle;Max_cycle;Signal;HPM_P1;HPM_P2
2021/01/03 00:00:50;;;;;;;;;;;4.30;99.90;;;4.00;100.00;101556.22;6236592;23;19919;-93
2021/01/03 00:03:16;;;;;;;;;;;4.20;99.90;;;4.13;100.00;101564.03;6212716;23;19955;-91
2021/01/03 00:05:42;;;;;;;;;;;4.60;99.90;;;4.00;100.00;101565.16;6209651;23;19904;-93
2021/01/03 00:08:10;;;;;;;;;;;4.20;99.90;;;3.74;100.00;101569.34;6226096;22;19948;-92
2021/01/03 00:10:36;;;;;;;;;;;4.30;99.90;;;3.70;100.00;101570.66;6154544;23;19892;-92
2021/01/03 00:13:03;;;;;;;;;;;4.00;99.90;;;3.58;100.00;101564.53;6161095;23;19910;-92
2021/01/03 00:15:29;;;;;;;;;;;4.00;99.90;;;3.62;100.00;101575.84;6154544;23;19957;-91
2021/01/03 00:18:14;;;;;;;;;;;3.90;99.90;;;3.84;100.00;101562.16;6181331;23;19901;-93
2021/01/03 00:20:41;;;;;;;;;;;3.90;99.90;;;3.82;100.00;101566.84;6178463;23;19913;-92
2021/01/03 00:23:07;;;;;;;;;;;4.30;99.90;;;3.76;100.00;101567.38;6154394;23;19915;-92
2021/01/03 00:25:33;;;;;;;;;;;4.00;99.90;;;3.93;100.00;101563.19;6156805;23;19911;-91
2021/01/03 00:27:59;;;;;;;;;;;4.00;99.90;;;3.95;100.00;101566.59;6150192;23;19919;-92
2021/01/03 00:30:27;;;;;;;;;;;4.10;99.90;;;4.06;100.00;101562.91;6175826;23;19905;-91
2021/01/03 00:32:55;;;;;;;;;;;4.10;99.90;;;4.22;100.00;101568.56;6174721;23;19932;-90
2021/01/03 00:35:30;;;;;;;;;;;4.10;99.90;;;4.05;100.00;101571.97;6170250;23;19908;-90
2021/01/03 00:38:05;;;;;;;;;;;4.10;99.90;;;3.78;100.00;101570.78;6119717;23;19908;-92
2021/01/03 00:40:49;;;;;;;;;;;4.20;99.90;;;3.67;100.00;101573.59;6172930;23;19904;-93
2021/01/03 00:43:16;;;;;;;;;;;4.10;99.90;;;3.79;100.00;101572.50;6174901;23;19888;-91
2021/01/03 00:45:43;;;;;;;;;;;4.10;99.90;;;3.79;100.00;101577.88;6153433;23;19983;-92
2021/01/03 00:48:10;;;;;;;;;;;4.10;99.90;;;3.89;100.00;101569.81;6172550;23;19928;-91
2021/01/03 00:50:37;;;;;;;;;;;4.00;99.90;;;3.64;100.00;101574.72;6169582;23;19905;-92
2021/01/03 00:53:04;;;;;;;;;;;4.00;99.90;;;3.59;100.00;101576.13;6167697;23;19904;-91
2021/01/03 00:55:32;;;;;;;;;;;3.90;99.90;;;3.77;100.00;101571.78;6142335;23;19984;-93
2021/01/03 00:57:58;;;;;;;;;;;4.40;99.90;;;3.92;100.00;101573.09;6144297;23;19908;-92
2021/01/03 01:00:32;;;;;;;;;;;4.00;99.90;;;3.92;100.00;101575.78;6120439;23;20357;-91
2021/01/03 01:03:00;;;;;;;;;;;4.00;99.90;;;3.93;100.00;101580.19;6150891;23;19908;-92
2021/01/03 01:05:26;;;;;;;;;;;4.00;99.90;;;3.75;100.00;101575.59;6170690;23;19915;-90
2021/01/03 01:07:52;;;;;;;;;;;4.00;99.90;;;3.72;100.00;101579.44;6166804;23;19991;-91
2021/01/03 01:10:22;;;;;;;;;;;4.10;99.90;;;3.75;100.00;101581.84;6141978;23;19905;-92
2021/01/03 01:12:49;;;;;;;;;;;4.00;99.90;;;3.67;100.00;101579.00;6142396;23;19939;-92
2021/01/03 01:15:18;;;;;;;;;;;4.00;99.90;;;3.70;100.00;101578.72;6167339;23;19956;-92
2021/01/03 01:17:48;;;;;;;;;;;4.00;99.90;;;3.76;100.00;101580.84;6183198;23;19905;-91
2021/01/03 01:20:18;;;;;;;;;;;4.00;99.90;;;3.79;100.00;101577.03;6134987;23;19904;-92
2021/01/03 01:22:50;;;;;;;;;;;4.00;99.90;;;3.63;100.00;101582.94;6183878;23;19912;-92
2021/01/03 01:25:18;;;;;;;;;;;4.00;99.90;;;3.90;100.00;101585.84;6177555;23;19935;-92
2021/01/03 01:27:44;;;;;;;;;;;4.00;99.90;;;3.70;100.00;101578.72;6153867;23;19937;-93
2021/01/03 01:30:15;;;;;;;;;;;4.00;99.90;;;3.78;100.00;101581.56;6147069;23;19905;-91
2021/01/03 01:32:43;;;;;;;;;;;4.00;99.90;;;4.04;100.00;101581.06;6167246;23;19911;-90
2021/01/03 01:35:12;;;;;;;;;;;4.10;99.90;;;4.09;100.00;101578.78;6166968;23;19936;-91
2021/01/03 01:37:38;;;;;;;;;;;4.10;99.90;;;3.96;100.00;101571.81;6169572;23;19911;-89
2021/01/03 01:40:06;;;;;;;;;;;4.20;99.90;;;4.21;100.00;101583.88;6144157;23;19908;-92
2021/01/03 01:42:32;;;;;;;;;;;4.20;99.90;;;4.31;100.00;101587.44;6165974;23;19911;-92
2021/01/03 01:45:00;;;;;;;;;;;4.80;99.90;;;4.31;100.00;101581.19;6167113;23;19909;-93
2021/01/03 01:47:30;;;;;;;;;;;4.30;99.90;;;4.40;100.00;101582.22;6164983;23;19986;-90
2021/01/03 01:49:58;;;;;;;;;;;4.30;99.90;;;4.37;100.00;101577.94;6164795;23;19904;-92
2021/01/03 01:52:28;;;;;;;;;;;4.30;99.90;;;4.28;100.00;101578.81;6163169;23;19905;-91
2021/01/03 01:54:58;;;;;;;;;;;4.40;99.90;;;4.34;100.00;101578.22;6138207;23;19915;-92
2021/01/03 01:57:35;;;;;;;;;;;4.30;99.90;;;4.28;100.00;101582.34;6164171;23;19912;-92
2021/01/03 02:00:17;;;;;;;;;;;4.40;99.90;;;4.19;100.00;101580.47;6140118;23;19911;-92
2021/01/03 02:03:25;;;;;;;;;;;4.40;99.90;;;3.89;100.00;101589.53;6164745;23;20293;-91
2021/01/03 02:06:00;;;;;;;;;;;4.30;99.90;;;3.91;100.00;101587.56;6164529;23;19911;-92
2021/01/03 02:08:40;;;;;;;;;;;4.20;99.90;;;3.81;100.00;101585.81;6141085;23;19979;-92
2021/01/03 02:11:08;;;;;;;;;;;4.20;99.90;;;3.85;100.00;101582.69;6165896;23;20046;-90
2021/01/03 02:13:43;;;;;;;;;;;4.20;99.90;;;3.92;100.00;101589.25;6167741;23;19928;-90
2021/01/03 02:16:15;;;;;;;;;;;4.20;99.90;;;3.93;100.00;101580.19;6144084;23;19919;-90
2021/01/03 02:18:44;;;;;;;;;;;4.20;99.90;;;3.97;100.00;101586.13;6144638;23;19911;-91
2021/01/03 02:21:31;;;;;;;;;;;4.20;99.90;;;3.97;100.00;101584.28;6144138;23;19904;-92
2021/01/03 02:24:09;;;;;;;;;;;4.20;99.90;;;3.94;100.00;101589.97;6145764;23;19986;-90
2021/01/03 02:26:42;;;;;;;;;;;4.20;99.90;;;3.94;100.00;101592.66;6145870;23;19905;-92
2021/01/03 02:29:11;;;;;;;;;;;4.20;99.90;;;3.90;100.00;101595.75;6151559;23;19910;-92
2021/01/03 02:31:49;;;;;;;;;;;4.20;99.90;;;3.80;100.00;101589.50;6156651;23;19919;-93
2021/01/03 02:34:35;;;;;;;;;;;5.10;99.90;;;4.00;100.00;101592.09;6143941;23;19905;-92
2021/01/03 02:37:34;;;;;;;;;;;4.20;99.90;;;4.00;100.00;101592.09;6169355;23;19909;-92
2021/01/03 02:40:07;;;;;;;;;;;4.20;99.90;;;4.15;100.00;101608.72;6127304;23;20093;-92
2021/01/03 02:42:38;;;;;;;;;;;4.30;99.90;;;4.26;100.00;101596.94;6144068;23;19911;-91
2021/01/03 02:45:09;;;;;;;;;;;4.30;99.90;;;4.27;100.00;101602.19;6171690;23;19905;-91
2021/01/03 02:47:35;;;;;;;;;;;4.30;99.90;;;4.11;100.00;101591.13;6146038;23;19912;-89
2021/01/03 02:50:03;;;;;;;;;;;4.30;99.90;;;4.08;100.00;101596.78;6172731;23;19904;-89
2021/01/03 02:52:36;;;;;;;;;;;4.30;99.90;;;3.96;100.00;101585.28;6174075;23;19943;-91
2021/01/03 02:55:03;;;;;;;;;;;4.30;99.90;;;4.04;100.00;101587.28;6146903;23;19908;-89
2021/01/03 02:57:31;;;;;;;;;;;4.30;99.90;;;4.09;100.00;101592.25;6142162;23;19912;-88
2021/01/03 02:59:57;;;;;;;;;;;4.30;99.90;;;4.14;100.00;101585.44;6167606;23;19908;-88
2021/01/03 03:02:23;;;;;;;;;;;4.40;99.90;;;4.09;100.00;101578.78;6167153;23;19911;-90
2021/01/03 03:04:49;;;;;;;;;;;4.80;99.90;;;4.25;100.00;101582.63;6140255;23;19927;-89
2021/01/03 03:07:15;;;;;;;;;;;4.40;99.90;;;4.23;100.00;101592.69;6167285;23;19904;-89
2021/01/03 03:09:44;;;;;;;;;;;4.40;99.90;;;4.11;100.00;101591.13;6188301;23;19919;-89
2021/01/03 03:12:09;;;;;;;;;;;4.50;99.90;;;4.17;100.00;101587.03;6165511;23;19904;-90
2021/01/03 03:14:35;;;;;;;;;;;4.50;99.90;;;4.43;100.00;101576.50;6142348;23;19909;-89
2021/01/03 03:17:05;;;;;;;;;;;4.70;99.90;;;4.38;99.56;101582.34;6173412;23;20368;-92
2021/01/03 03:19:31;;;;;;;;;;;4.50;99.90;;;4.31;99.53;101583.88;6204325;23;19924;-91
2021/01/03 03:21:57;;;;;;;;;;;4.50;99.90;;;4.25;99.53;101576.38;6175885;23;19943;-91
2021/01/03 03:24:22;;;;;;;;;;;4.40;99.90;;;4.38;99.18;101579.66;6194595;23;19916;-92
2021/01/03 03:26:52;;;;;;;;;;;4.60;99.90;;;4.22;99.87;101579.34;6153554;23;19927;-91
2021/01/03 03:29:19;;;;;;;;;;;4.50;99.90;;;4.31;99.75;101578.50;6175030;23;19908;-91
2021/01/03 03:31:44;;;;;;;;;;;4.40;99.90;;;4.36;99.83;101581.63;6180586;23;19997;-90
2021/01/03 03:34:10;;;;;;;;;;;4.50;99.90;;;4.27;99.12;101577.09;6180102;23;20414;-90
2021/01/03 03:36:36;;;;;;;;;;;4.40;99.90;;;4.20;99.38;101579.50;6156803;23;19995;-90
2021/01/03 03:39:02;;;;;;;;;;;4.40;99.90;;;4.09;99.88;101578.78;6182017;23;19919;-90
2021/01/03 03:41:28;;;;;;;;;;;4.30;99.90;;;4.13;99.85;101580.22;6207686;23;19905;-90
2021/01/03 03:43:54;;;;;;;;;;;4.30;99.90;;;4.15;100.00;101572.84;6152104;23;19909;-91
2021/01/03 03:46:20;;;;;;;;;;;4.30;99.90;;;4.12;99.45;101575.81;6155361;23;19952;-89
2021/01/03 03:48:45;;;;;;;;;;;4.30;99.90;;;4.09;99.68;101576.06;6182185;23;19903;-90
2021/01/03 03:51:19;;;;;;;;;;;4.20;99.90;;;4.07;99.67;101576.22;6209181;23;19897;-91
2021/01/03 03:53:46;;;;;;;;;;;4.20;99.90;;;3.84;100.00;101581.00;6209372;23;19948;-91
2021/01/03 03:56:13;;;;;;;;;;;5.30;99.90;;;3.89;100.00;101584.13;6183961;23;19900;-90
2021/01/03 03:58:39;;;;;;;;;;;4.30;99.90;;;3.80;100.00;101578.75;6207917;23;19916;-90
2021/01/03 04:01:06;;;;;;;;;;;4.00;99.90;;;3.82;100.00;101583.00;6179049;23;20328;-90
2021/01/03 04:03:32;;;;;;;;;;;4.00;99.90;;;3.75;100.00;101579.13;6150125;23;19909;-91
2021/01/03 04:05:58;;;;;;;;;;;4.20;99.90;;;3.90;100.00;101585.00;6173287;23;19904;-92
2021/01/03 04:08:24;;;;;;;;;;;4.40;99.90;;;3.89;100.00;101586.84;6184678;23;19912;-92
2021/01/03 04:10:50;;;;;;;;;;;4.00;99.90;;;3.88;100.00;101587.81;6140582;23;20042;-92
2021/01/03 04:13:16;;;;;;;;;;;4.00;99.90;;;3.89;100.00;101573.38;6140864;23;19956;-92
2021/01/03 04:15:42;;;;;;;;;;;4.10;99.90;;;3.77;100.00;101576.31;6164808;23;19983;-93
2021/01/03 04:18:08;;;;;;;;;;;4.00;99.90;;;3.83;100.00;101582.00;6140244;23;19908;-90
2021/01/03 04:20:34;;;;;;;;;;;4.00;99.90;;;3.76;100.00;101583.53;6165482;23;19915;-92
2021/01/03 04:23:00;;;;;;;;;;;4.00;99.90;;;3.87;100.00;101583.41;6164735;23;19908;-91
2021/01/03 04:25:26;;;;;;;;;;;4.00;99.90;;;3.89;100.00;101583.28;6116532;23;19915;-92
2021/01/03 04:27:54;;;;;;;;;;;4.80;99.90;;;3.87;100.00;101586.13;6118811;23;19942;-92
2021/01/03 04:30:22;;;;;;;;;;;4.00;99.90;;;3.80;100.00;101578.75;6169780;23;19895;-91
2021/01/03 04:32:48;;;;;;;;;;;4.00;99.90;;;3.81;100.00;101592.06;6168933;23;19908;-91
2021/01/03 04:35:15;;;;;;;;;;;4.20;99.90;;;3.97;100.00;101584.28;6117871;23;19912;-93
2021/01/03 04:37:41;;;;;;;;;;;4.10;99.90;;;3.89;100.00;101584.13;6138515;23;19999;-90
2021/01/03 04:40:15;;;;;;;;;;;4.10;99.90;;;3.94;100.00;101586.44;6118507;23;19913;-90
2021/01/03 04:42:41;;;;;;;;;;;4.10;99.90;;;3.91;100.00;101587.56;6167354;23;19911;-92
2021/01/03 04:45:31;;;;;;;;;;;4.10;99.90;;;3.96;100.00;101585.28;6167501;23;19905;-92
2021/01/03 04:48:02;;;;;;;;;;;4.00;99.90;;;3.92;100.00;101585.72;6127497;23;19905;-92
2021/01/03 04:50:49;;;;;;;;;;;4.00;99.90;;;3.77;100.00;101585.25;6140751;23;19912;-91
2021/01/03 04:53:23;;;;;;;;;;;4.00;99.90;;;3.93;100.00;101585.56;6139585;23;19904;-90
2021/01/03 04:56:00;;;;;;;;;;;3.90;99.90;;;3.87;100.00;101588.81;6137000;23;20314;-89
2021/01/03 04:58:35;;;;;;;;;;;3.90;99.90;;;3.93;100.00;101588.28;6137545;23;19905;-89
2021/01/03 05:01:09;;;;;;;;;;;4.00;99.90;;;3.73;100.00;101593.72;6136342;23;19936;-89
2021/01/03 05:04:09;;;;;;;;;;;4.00;99.90;;;3.47;100.00;101588.00;6160777;23;19908;-90
2021/01/03 05:06:36;;;;;;;;;;;3.80;99.90;;;3.40;100.00;101592.19;6161176;23;19905;-89
2021/01/03 05:09:07;;;;;;;;;;;3.70;99.90;;;3.51;100.00;101595.66;6174204;23;19916;-88
2021/01/03 05:11:52;;;;;;;;;;;3.60;99.90;;;3.59;100.00;101603.06;6185751;23;19955;-90
2021/01/03 05:14:35;;;;;;;;;;;3.40;99.90;;;3.64;100.00;101596.25;6130607;23;19904;-90
2021/01/03 05:17:01;;;;;;;;;;;3.80;99.90;;;3.74;100.00;101598.97;6186129;23;19932;-89
2021/01/03 05:19:27;;;;;;;;;;;3.70;99.90;;;3.75;100.00;101595.28;6160684;23;20281;-89
2021/01/03 05:21:55;;;;;;;;;;;3.80;99.90;;;3.80;100.00;101595.75;6159864;23;19905;-89
2021/01/03 05:24:26;;;;;;;;;;;3.80;99.90;;;3.87;100.00;101596.88;6159626;23;19947;-90
2021/01/03 05:26:53;;;;;;;;;;;3.80;99.90;;;3.64;100.00;101601.66;6185891;23;19904;-90
2021/01/03 05:29:27;;;;;;;;;;;3.80;99.90;;;3.57;100.00;101591.56;6186545;23;20393;-90
2021/01/03 05:31:59;;;;;;;;;;;3.80;99.90;;;3.38;100.00;101597.75;6189290;23;19905;-90
2021/01/03 05:34:32;;;;;;;;;;;3.70;99.90;;;3.58;100.00;101598.66;6189380;23;20260;-89
2021/01/03 05:37:24;;;;;;;;;;;3.70;99.90;;;3.63;100.00;101599.09;6190361;23;20351;-89
2021/01/03 05:39:50;;;;;;;;;;;3.60;99.90;;;3.46;100.00;101605.13;6166717;23;19932;-90
2021/01/03 05:42:18;;;;;;;;;;;3.50;99.90;;;3.36;100.00;101602.41;6165088;23;19909;-91
2021/01/03 05:44:56;;;;;;;;;;;3.50;99.90;;;3.47;100.00;101612.22;6192325;23;19896;-89
2021/01/03 05:47:32;;;;;;;;;;;3.50;99.90;;;3.38;100.00;101611.19;6190576;23;20329;-88
2021/01/03 05:50:22;;;;;;;;;;;3.50;99.90;;;3.41;100.00;101610.06;6187753;23;19991;-91
2021/01/03 05:52:59;;;;;;;;;;;3.50;99.90;;;3.36;100.00;101613.16;6188616;23;19904;-89
2021/01/03 05:55:29;;;;;;;;;;;3.50;99.90;;;3.52;100.00;101618.03;6166115;23;19915;-90
2021/01/03 05:58:11;;;;;;;;;;;3.50;99.90;;;3.49;100.00;101619.19;6188510;23;19911;-89
2021/01/03 06:00:37;;;;;;;;;;;3.60;99.90;;;3.57;100.00;101623.88;6166318;23;19989;-92
2021/01/03 06:03:17;;;;;;;;;;;3.60;99.90;;;3.55;100.00;101625.84;6167411;23;19975;-91
2021/01/03 06:05:50;;;;;;;;;;;3.60;99.90;;;3.52;100.00;101624.25;6191895;23;19905;-92
2021/01/03 06:08:23;;;;;;;;;;;3.70;99.90;;;3.50;100.00;101622.72;6190943;23;19944;-92
2021/01/03 06:10:49;;;;;;;;;;;3.80;99.90;;;3.66;100.00;101628.44;6190530;23;19912;-91
2021/01/03 06:13:17;;;;;;;;;;;3.80;99.90;;;3.71;100.00;101628.88;6166366;23;19905;-93
2021/01/03 06:15:51;;;;;;;;;;;4.30;99.90;;;3.77;100.00;101633.72;6193717;23;19912;-92
2021/01/03 06:18:27;;;;;;;;;;;3.90;99.90;;;3.67;100.00;101626.59;6169086;23;19904;-92
2021/01/03 06:20:53;;;;;;;;;;;3.90;99.90;;;3.65;100.00;101634.81;6173841;23;19904;-92
2021/01/03 06:23:35;;;;;;;;;;;3.80;99.90;;;3.53;100.00;101635.88;6173606;23;19911;-93
2021/01/03 06:26:17;;;;;;;;;;;3.80;99.90;;;3.60;100.00;101632.53;6195029;23;19905;-91
2021/01/03 06:28:51;;;;;;;;;;;3.80;99.90;;;3.54;100.00;101626.81;6201724;23;19904;-92
2021/01/03 06:31:23;;;;;;;;;;;3.70;99.90;;;3.56;100.00;101641.00;6208587;23;19920;-92
2021/01/03 06:34:07;;;;;;;;;;;3.70;99.90;;;3.61;100.00;101644.16;6210358;23;19908;-92
2021/01/03 06:36:38;;;;;;;;;;;3.80;99.90;;;3.55;100.00;101644.69;6181100;23;19912;-91
2021/01/03 06:39:24;;;;;;;;;;;3.70;99.90;;;3.65;100.00;101642.88;6168628;23;19904;-92
2021/01/03 06:41:57;;;;;;;;;;;3.80;99.90;;;3.49;100.00;101646.09;6168183;23;19908;-92
2021/01/03 06:44:39;;;;;;;;;;;3.80;99.90;;;3.58;100.00;101650.66;6194498;23;19905;-92
2021/01/03 06:47:28;;;;;;;;;;;3.80;99.90;;;3.65;100.00;101654.50;6170370;23;19904;-93
2021/01/03 06:49:56;;;;;;;;;;;4.30;99.90;;;4.03;100.00;101649.38;6168978;23;20372;-92
2021/01/03 06:52:38;;;;;;;;;;;3.90;99.90;;;4.06;100.00;101657.19;6166127;23;20429;-92
2021/01/03 06:55:27;;;;;;;;;;;4.00;99.90;;;4.03;100.00;101654.78;6190683;23;19956;-92
2021/01/03 06:58:31;;;;;;;;;;;4.00;99.90;;;4.04;100.00;101661.88;6191200;23;19905;-90
2021/01/03 07:01:13;;;;;;;;;;;4.00;99.90;;;4.04;100.00;101665.41;6145189;23;20405;-92
2021/01/03 07:03:39;;;;;;;;;;;4.50;99.90;;;3.76;100.00;101664.31;6170351;23;19967;-91
2021/01/03 07:06:32;;;;;;;;;;;4.50;99.90;;;3.77;100.00;101666.03;6176617;23;19909;-91
2021/01/03 07:09:03;;;;;;;;;;;4.10;99.90;;;3.78;100.00;101673.13;6163909;23;20000;-90
2021/01/03 07:11:47;;;;;;;;;;;4.40;99.90;;;4.00;100.00;101674.75;6165766;23;19920;-91
2021/01/03 07:14:19;;;;;;;;;;;4.10;99.90;;;4.01;100.00;101680.00;6165682;23;19912;-91
2021/01/03 07:16:50;;;;;;;;;;;4.20;99.90;;;4.25;100.00;101681.47;6188591;23;19992;-88
2021/01/03 07:19:27;;;;;;;;;;;4.20;99.90;;;4.03;100.00;101676.31;6163985;23;20313;-89
2021/01/03 07:21:56;;;;;;;;;;;4.20;99.90;;;4.15;100.00;101680.59;6164537;23;19912;-90
2021/01/03 07:24:32;;;;;;;;;;;4.20;99.90;;;4.22;100.00;101684.44;6164623;23;19904;-89
2021/01/03 07:27:25;;;;;;;;;;;4.30;99.90;;;4.05;100.00;101687.81;6163051;23;20215;-90
2021/01/03 07:29:56;;;;;;;;;;;4.20;99.90;;;4.01;100.00;101690.78;6142074;23;19936;-90
2021/01/03 07:32:37;;;;;;;;;;;4.20;99.90;;;3.89;100.00;101697.25;6191584;23;20523;-91
2021/01/03 07:35:07;;;;;;;;;;;4.20;99.90;;;3.71;100.00;101695.34;6189081;23;19908;-90
2021/01/03 07:37:34;;;;;;;;;;;4.10;99.90;;;3.89;100.00;101697.25;6163815;23;19904;-89
2021/01/03 07:40:10;;;;;;;;;;;4.00;99.90;;;3.71;100.00;101698.03;6164806;23;19908;-90
2021/01/03 07:42:44;;;;;;;;;;;4.10;99.90;;;3.81;100.00;101697.09;6163896;23;19911;-89
2021/01/03 07:45:13;;;;;;;;;;;4.00;99.90;;;3.73;100.00;101707.66;6188570;23;19904;-90
2021/01/03 07:47:53;;;;;;;;;;;4.00;99.90;;;3.64;100.00;101708.47;6189789;23;19904;-90
2021/01/03 07:50:38;;;;;;;;;;;4.00;99.90;;;3.69;100.00;101714.31;6186862;23;19908;-89
2021/01/03 07:53:22;;;;;;;;;;;4.00;99.90;;;3.66;100.00;101717.28;6163943;23;20384;-90
2021/01/03 07:55:48;;;;;;;;;;;4.00;99.90;;;3.69;100.00;101717.00;6188250;23;19931;-90
2021/01/03 07:58:18;;;;;;;;;;;4.30;99.90;;;3.63;100.00;101722.91;6163103;23;19909;-90
2021/01/03 08:00:45;;;;;;;;;;;4.40;99.90;;;3.64;100.00;101725.47;6165907;23;19904;-91
2021/01/03 08:03:16;;;;;;;;;;;4.10;99.90;;;3.70;100.00;101723.25;6190024;23;19905;-91
2021/01/03 08:05:44;;;;;;;;;;;4.00;99.90;;;3.65;100.00;101731.72;6193627;23;20229;-92
2021/01/03 08:08:21;;;;;;;;;;;3.60;99.90;;;4.09;100.00;101737.72;6172230;23;19920;-92
2021/01/03 08:10:49;;;;;;;;;;;4.40;99.90;;;4.22;100.00;101738.31;6152565;23;19913;-93
2021/01/03 08:13:25;;;;;;;;;;;4.10;99.90;;;4.04;100.00;101737.28;6149784;23;19911;-90
2021/01/03 08:15:55;;;;;;;;;;;4.20;99.90;;;4.17;100.00;101743.28;6171850;23;19918;-89
2021/01/03 08:18:23;;;;;;;;;;;4.20;99.90;;;4.03;100.00;101744.50;6146887;23;19908;-89
2021/01/03 08:20:49;;;;;;;;;;;4.80;99.90;;;4.07;100.00;101747.75;6142178;23;19944;-88
2021/01/03 08:23:18;;;;;;;;;;;4.20;99.90;;;4.18;100.00;101748.50;6169046;23;20229;-90
2021/01/03 08:25:44;;;;;;;;;;;4.20;99.90;;;4.01;100.00;101750.03;6171459;23;19905;-89
2021/01/03 08:28:22;;;;;;;;;;;4.20;99.90;;;4.09;100.00;101752.03;6172151;23;19904;-91
2021/01/03 08:30:50;;;;;;;;;;;4.20;99.90;;;3.97;100.00;101745.88;6175929;23;19953;-90
2021/01/03 08:33:31;;;;;;;;;;;4.20;99.90;;;4.05;100.00;101750.63;6143682;23;19904;-89
2021/01/03 08:35:57;;;;;;;;;;;4.30;99.90;;;4.15;100.00;101750.66;6142808;23;19915;-90
2021/01/03 08:38:27;;;;;;;;;;;4.20;99.90;;;4.18;100.00;101747.66;6169056;23;19909;-89
2021/01/03 08:41:00;;;;;;;;;;;4.30;99.90;;;4.18;100.00;101750.34;6171497;23;19909;-89
2021/01/03 08:43:29;;;;;;;;;;;4.30;99.90;;;4.08;100.00;101754.88;6147186;23;19905;-91
2021/01/03 08:46:01;;;;;;;;;;;4.30;99.90;;;4.23;100.00;101764.28;6177201;23;20306;-91
2021/01/03 08:48:27;;;;;;;;;;;4.20;99.90;;;4.12;100.00;101761.69;6182281;23;19940;-90
2021/01/03 08:51:09;;;;;;;;;;;4.30;99.90;;;4.13;100.00;101763.41;6150460;23;19987;-91
2021/01/03 08:53:37;;;;;;;;;;;4.20;99.90;;;4.14;100.00;101765.97;6176316;23;19904;-91
2021/01/03 08:56:04;;;;;;;;;;;4.70;99.90;;;4.06;100.00;101764.94;6174958;23;19912;-91
2021/01/03 08:58:39;;;;;;;;;;;4.20;99.90;;;3.99;100.00;101762.78;6195885;23;19916;-92
2021/01/03 09:01:31;;;;;;;;;;;4.20;99.90;;;4.07;100.00;101762.09;6210383;23;19904;-93
2021/01/03 09:04:03;;;;;;;;;;;4.30;99.90;;;4.26;100.00;101764.03;6212621;23;19926;-91
2021/01/03 09:06:31;;;;;;;;;;;4.30;99.90;;;4.22;100.00;101778.75;6244779;22;19972;-92
2021/01/03 09:08:58;;;;;;;;;;;4.30;99.90;;;4.11;100.00;101776.16;6217537;23;19979;-94
2021/01/03 09:11:35;;;;;;;;;;;4.00;99.90;;;4.24;100.00;101787.56;6211815;23;19914;-92
2021/01/03 09:21:14;;;;;;;;;;;4.30;99.90;;;4.13;100.00;101787.66;6177210;23;19898;-94
2021/01/03 09:23:42;;;;;;;;;;;4.30;99.90;;;4.07;100.00;101790.88;6211328;23;19908;-93
2021/01/03 09:26:09;;;;;;;;;;;4.20;99.90;;;4.15;100.00;101793.75;6209952;23;19986;-93
2021/01/03 09:28:41;;;;;;;;;;;4.30;99.90;;;4.10;100.00;101796.00;6205803;23;19920;-91
2021/01/03 09:31:24;;;;;;;;;;;4.30;99.90;;;4.13;100.00;101801.97;6180832;23;19904;-92
2021/01/03 09:34:25;;;;;;;;;;;4.40;99.90;;;4.31;100.00;101796.78;6201820;23;19908;-90
2021/01/03 09:37:03;;;;;;;;;;;4.40;99.90;;;4.32;100.00;101811.97;6201505;23;19908;-89
2021/01/03 09:40:07;;;;;;;;;;;4.60;99.90;;;4.22;100.00;101803.00;6200360;23;19969;-90
2021/01/03 09:42:52;;;;;;;;;;;4.50;99.90;;;4.25;100.00;101805.44;6200223;23;20313;-90
2021/01/03 09:45:49;;;;;;;;;;;4.50;99.90;;;4.02;100.00;101810.16;6198342;23;19928;-89
2021/01/03 09:48:31;;;;;;;;;;;4.40;99.90;;;4.15;100.00;101809.94;6196808;23;20317;-89
2021/01/03 09:51:47;;;;;;;;;;;4.40;99.90;;;4.19;100.00;101814.03;6195210;23;19979;-90
2021/01/03 09:54:21;;;;;;;;;;;4.40;99.90;;;4.16;100.00;101812.50;6195406;23;19908;-88
2021/01/03 09:56:52;;;;;;;;;;;4.50;99.90;;;4.20;100.00;101816.59;6172527;23;19947;-90
2021/01/03 09:59:20;;;;;;;;;;;4.90;99.90;;;4.11;100.00;101824.66;6199107;23;19986;-90
2021/01/03 10:01:49;;;;;;;;;;;4.80;99.90;;;4.30;100.00;101819.31;6172402;23;20301;-89
2021/01/03 10:04:27;;;;;;;;;;;4.50;99.90;;;4.32;100.00;101812.81;6199986;23;19911;-89
2021/01/03 10:07:10;;;;;;;;;;;4.60;99.90;;;4.39;99.58;101810.47;6195747;23;19904;-89
2021/01/03 10:09:37;;;;;;;;;;;4.60;99.90;;;4.37;99.33;101820.50;6198313;23;19888;-89
2021/01/03 10:12:19;;;;;;;;;;;4.50;99.90;;;4.42;98.96;101817.38;6195665;23;19904;-89
2021/01/03 10:14:45;;;;;;;;;;;4.60;99.90;;;4.19;99.04;101816.72;6195330;23;19968;-89
2021/01/03 10:17:17;;;;;;;;;;;4.70;99.90;;;4.23;98.81;101819.03;6170377;23;19904;-91
2021/01/03 10:19:43;;;;;;;;;;;4.50;99.90;;;4.36;98.52;101822.34;6196365;23;19965;-88
2021/01/03 10:22:32;;;;;;;;;;;4.70;99.90;;;4.34;98.24;101820.78;6175207;23;19908;-88
2021/01/03 10:25:00;;;;;;;;;;;4.60;99.90;;;4.38;96.75;101827.63;6198228;23;19904;-89
2021/01/03 10:27:26;;;;;;;;;;;4.60;99.90;;;4.45;96.25;101828.75;6197788;23;19912;-89
2021/01/03 10:29:52;;;;;;;;;;;4.60;99.90;;;4.45;95.62;101828.75;6203105;23;19911;-89
2021/01/03 10:32:21;;;;;;;;;;;4.70;99.90;;;4.52;95.78;101835.31;6202789;23;19908;-89
2021/01/03 10:34:48;;;;;;;;;;;5.20;99.90;;;4.65;95.19;101819.75;6180002;23;19927;-90
2021/01/03 10:37:20;;;;;;;;;;;4.90;99.90;;;4.82;94.25;101830.84;6176438;23;19919;-89
2021/01/03 10:39:48;;;;;;;;;;;4.90;99.90;;;4.91;92.47;101830.03;6209509;23;19908;-92
2021/01/03 10:42:19;;;;;;;;;;;5.50;99.90;;;4.84;91.45;101810.00;6209538;23;19960;-92
2021/01/03 10:44:45;;;;;;;;;;;5.10;99.90;;;4.93;91.49;101812.72;6207342;23;19911;-91
2021/01/03 10:49:58;;;;;;;;;;;5.10;99.90;;;5.05;89.58;101810.72;6219418;23;20351;-92
2021/01/03 10:52:25;;;;;;;;;;;5.10;99.90;;;5.27;88.82;101810.47;6220554;23;19903;-93
2021/01/03 10:55:12;;;;;;;;;;;5.30;99.90;;;5.26;86.65;101813.28;6195229;23;19912;-92
2021/01/03 10:57:54;;;;;;;;;;;5.40;99.90;;;5.24;85.80;101810.72;6163325;23;19956;-90
2021/01/03 11:00:29;;;;;;;;;;;5.40;99.90;;;5.44;85.58;101812.41;6185645;23;19904;-91
2021/01/03 11:02:55;;;;;;;;;;;5.50;99.90;;;5.37;84.49;101811.31;6160068;23;19939;-89
2021/01/03 11:05:23;;;;;;;;;;;5.50;99.90;;;5.22;83.87;101806.47;6184116;23;19908;-92
2021/01/03 11:07:49;;;;;;;;;;;5.50;99.90;;;5.34;83.83;101802.63;6154848;23;19908;-90
2021/01/03 11:10:20;;;;;;;;;;;5.50;99.90;;;5.33;82.99;101807.16;6155688;23;19908;-91
2021/01/03 11:12:46;;;;;;;;;;;5.50;99.90;;;5.22;84.02;101806.47;6158810;23;19908;-91
2021/01/03 11:15:15;;;;;;;;;;;6.10;99.90;;;5.13;83.48;101804.63;6158095;23;19916;-91
2021/01/03 11:17:41;;;;;;;;;;;5.50;99.90;;;5.17;83.09;101804.22;6157749;23;19948;-91
2021/01/03 11:22:42;;;;;;;;;;;5.50;99.90;;;5.29;83.01;101792.28;6260058;22;19941;-90
2021/01/03 11:25:11;;;;;;;;;;;5.50;99.90;;;5.33;83.45;101803.63;6240218;23;19978;-91
2021/01/03 11:31:05;;;;;;;;;;;5.50;99.90;;;5.12;83.42;101811.88;6237194;23;19958;-89
2021/01/03 11:33:31;;;;;;;;;;;5.50;99.90;;;5.04;85.14;101798.22;6187364;23;19904;-89
2021/01/03 11:35:57;;;;;;;;;;;5.40;99.90;;;5.04;85.04;101800.94;6186082;23;19911;-89
2021/01/03 11:38:29;;;;;;;;;;;5.40;99.90;;;4.89;85.16;101808.56;6190909;23;19903;-92
2021/01/03 11:43:32;;;;;;;;;;;5.20;99.90;;;4.88;86.25;101797.91;6268303;22;19941;-90
2021/01/03 11:51:12;;;;;;;;;;;5.30;99.90;;;5.33;87.03;101800.91;6230234;22;19915;-90
2021/01/03 11:53:38;;;;;;;;;;;5.10;99.90;;;5.28;86.50;101801.38;6192651;23;19934;-91
2021/01/03 11:56:24;;;;;;;;;;;6.00;99.90;;;5.15;86.15;101806.19;6222878;23;19939;-93
2021/01/03 11:58:51;;;;;;;;;;;5.50;99.90;;;5.10;86.28;101794.94;6269439;23;19913;-92
2021/01/03 12:01:19;;;;;;;;;;;5.70;99.90;;;5.04;85.43;101800.94;6219243;23;19908;-93
2021/01/03 12:07:30;;;;;;;;;;;5.30;99.90;;;4.82;82.89;101804.75;6272032;23;20445;-93
2021/01/03 12:09:56;;;;;;;;;;;5.30;99.90;;;4.88;83.57;101789.81;6240315;23;20057;-92